North Hoosick, New York
Current Conditions -  °F | °C
As of 8:06 AM on Monday 22 Dec 2014 (Local Time) from KDDH Reporting Station
Haze Haze  
Wind Chill: 29°   Ceiling: 3600
Heat Index: 29°   Visibility: 3mi
Dew Point: 26°   Wind: 0mph
Humidity: 89%   Direction: NA
Pressure: 30.32"   Gusts: NA
Location:  42.93°N, 73.34°W
Report Text: KDDH 221306Z AUTO 00000KT 3SM BR OVC036 M02/M03 A3032 RMK AO2 T10171033
Loading
Personal Weather Stations






























Interactive Weather Map New forecast layout! Learn more

10-Day Weather Forecast

Advertisements
Track Severe Weather on mobile